Time;durP1;ratioP1;P1;durP2;ratioP2;P2;SDS_P1;SDS_P2;PMS_P1;PMS_P2;Temp;Humidity;BMP_temperature;BMP_pressure;BME280_temperature;BME280_humidity;BME280_pressure;Samples;Min_cycle;Max_cycle;Signal;HPM_P1;HPM_P2
2021/03/04 00:00:20;;;;;;;28.83;15.93;;;6.40;99.90;;;;;;5050043;28;20490;-68
2021/03/04 00:02:47;;;;;;;30.60;15.80;;;6.40;99.90;;;;;;5050184;28;20443;-69
2021/03/04 00:05:16;;;;;;;29.87;14.73;;;6.30;99.90;;;;;;5053967;28;20442;-69
2021/03/04 00:07:43;;;;;;;32.47;17.23;;;6.40;99.90;;;;;;5053978;28;20816;-69
2021/03/04 00:10:11;;;;;;;29.03;17.10;;;6.40;99.90;;;;;;5054028;28;20467;-68
2021/03/04 00:12:38;;;;;;;36.07;17.07;;;6.40;99.90;;;;;;5048772;28;20880;-69
2021/03/04 00:15:08;;;;;;;33.57;15.37;;;6.40;99.90;;;;;;5033600;28;20926;-68
2021/03/04 00:17:34;;;;;;;27.60;16.50;;;6.40;99.90;;;;;;5033753;28;20434;-69
2021/03/04 00:20:05;;;;;;;30.27;17.00;;;6.40;99.90;;;;;;5034214;28;20439;-69
2021/03/04 00:22:32;;;;;;;36.00;15.80;;;6.40;99.90;;;;;;5033873;28;20438;-69
2021/03/04 00:24:59;;;;;;;40.77;18.00;;;6.40;99.90;;;;;;5034159;28;20975;-70
2021/03/04 00:27:26;;;;;;;32.07;16.53;;;6.30;99.90;;;;;;5033740;28;20477;-69
2021/03/04 00:29:55;;;;;;;34.27;17.70;;;6.30;99.90;;;;;;5033330;28;20536;-70
2021/03/04 00:32:22;;;;;;;26.37;15.93;;;6.30;99.90;;;;;;5033607;28;20427;-68
2021/03/04 00:34:48;;;;;;;31.93;17.60;;;6.30;99.90;;;;;;5033602;28;20425;-69
2021/03/04 00:37:15;;;;;;;36.30;18.47;;;6.30;99.90;;;;;;5033329;28;20427;-69
2021/03/04 00:39:43;;;;;;;34.07;17.67;;;6.30;99.90;;;;;;5033472;28;20436;-69
2021/03/04 00:42:10;;;;;;;32.00;17.73;;;6.30;99.90;;;;;;5034283;28;20445;-68
2021/03/04 00:44:37;;;;;;;38.53;17.80;;;6.20;99.90;;;;;;5052399;28;20471;-70
2021/03/04 00:47:04;;;;;;;38.70;17.80;;;6.20;99.90;;;;;;5053195;28;20444;-69
2021/03/04 00:49:31;;;;;;;31.17;18.27;;;6.20;99.90;;;;;;5053120;28;20847;-70
2021/03/04 00:51:57;;;;;;;37.13;19.30;;;6.20;99.90;;;;;;5052811;28;20431;-69
2021/03/04 00:54:24;;;;;;;34.70;16.97;;;6.20;99.90;;;;;;5053118;28;20422;-69
2021/03/04 00:56:51;;;;;;;35.47;19.50;;;6.20;99.90;;;;;;5053170;28;20426;-69
2021/03/04 00:59:18;;;;;;;33.33;16.97;;;6.20;99.90;;;;;;5052776;28;20454;-69
2021/03/04 01:01:45;;;;;;;31.70;17.03;;;6.10;99.90;;;;;;5053037;28;20439;-70
2021/03/04 01:04:11;;;;;;;31.60;19.07;;;6.10;99.90;;;;;;5053219;28;20429;-70
2021/03/04 01:06:38;;;;;;;37.37;17.50;;;6.10;99.90;;;;;;5053047;28;20434;-69
2021/03/04 01:09:06;;;;;;;32.47;18.60;;;6.10;99.90;;;;;;5052889;28;20443;-69
2021/03/04 01:11:33;;;;;;;38.00;17.87;;;6.00;99.90;;;;;;5053246;28;20493;-68
2021/03/04 01:14:00;;;;;;;35.17;18.53;;;6.00;99.90;;;;;;5052786;28;20847;-69
2021/03/04 01:16:27;;;;;;;40.20;19.37;;;6.00;99.90;;;;;;5053417;28;20452;-69
2021/03/04 01:18:53;;;;;;;31.90;17.90;;;6.00;99.90;;;;;;5053194;28;20455;-70
2021/03/04 01:21:20;;;;;;;31.43;17.53;;;6.00;99.90;;;;;;5053721;28;20433;-69
2021/03/04 01:23:47;;;;;;;31.70;18.90;;;6.00;99.90;;;;;;5053342;28;20490;-69
2021/03/04 01:26:13;;;;;;;29.53;17.77;;;6.00;99.90;;;;;;5052960;28;20445;-70
2021/03/04 01:28:40;;;;;;;31.07;17.70;;;6.00;99.90;;;;;;5052799;28;20468;-70
2021/03/04 01:31:08;;;;;;;36.30;18.30;;;6.00;99.90;;;;;;5052926;28;20501;-69
2021/03/04 01:33:34;;;;;;;35.80;19.40;;;6.00;99.90;;;;;;5052810;28;20425;-69
2021/03/04 01:36:01;;;;;;;30.87;17.57;;;5.90;99.90;;;;;;5053200;28;20439;-69
2021/03/04 01:38:28;;;;;;;35.80;18.33;;;5.90;99.90;;;;;;5052846;28;20448;-70
2021/03/04 01:40:54;;;;;;;41.67;18.20;;;5.90;99.90;;;;;;5052536;28;20441;-69
2021/03/04 01:43:21;;;;;;;35.00;17.97;;;6.00;99.90;;;;;;5052042;28;20462;-70
2021/03/04 01:45:47;;;;;;;28.33;18.30;;;5.90;99.90;;;;;;5053172;28;20443;-69
2021/03/04 01:48:16;;;;;;;33.37;18.00;;;5.90;99.90;;;;;;5052424;28;20454;-69
2021/03/04 01:50:43;;;;;;;33.67;17.33;;;5.90;99.90;;;;;;5052729;28;20472;-69
2021/03/04 01:53:09;;;;;;;31.90;17.97;;;5.80;99.90;;;;;;5051677;28;20439;-69
2021/03/04 01:55:37;;;;;;;33.70;18.73;;;5.70;99.90;;;;;;5052799;28;20437;-69
2021/03/04 01:58:04;;;;;;;32.83;17.20;;;5.80;99.90;;;;;;5052230;28;20451;-69
2021/03/04 02:00:30;;;;;;;32.20;19.60;;;5.80;99.90;;;;;;5052482;28;20444;-70
2021/03/04 02:02:57;;;;;;;33.03;18.87;;;5.80;99.90;;;;;;5051684;28;20452;-69
2021/03/04 02:05:25;;;;;;;31.83;18.50;;;5.70;99.90;;;;;;5052077;28;20431;-69
2021/03/04 02:08:05;;;;;;;32.97;18.13;;;5.70;99.90;;;;;;5052118;28;20455;-69
2021/03/04 02:10:37;;;;;;;32.43;18.10;;;5.70;99.90;;;;;;5051878;28;20540;-69
2021/03/04 02:13:14;;;;;;;40.70;18.90;;;5.60;99.90;;;;;;5051803;28;20529;-69
2021/03/04 02:15:47;;;;;;;34.90;17.90;;;5.70;99.90;;;;;;5051954;28;20835;-70
2021/03/04 02:18:17;;;;;;;34.47;18.00;;;5.80;99.90;;;;;;5051974;28;20449;-70
2021/03/04 02:21:17;;;;;;;31.83;18.27;;;5.80;99.90;;;;;;5051907;28;20424;-70
2021/03/04 02:24:06;;;;;;;39.00;18.67;;;5.90;99.90;;;;;;5051878;28;20424;-69
2021/03/04 02:26:52;;;;;;;36.73;18.80;;;5.90;99.90;;;;;;5051255;28;20431;-70
2021/03/04 02:29:21;;;;;;;31.10;16.67;;;5.90;99.90;;;;;;5051360;28;20469;-70
2021/03/04 02:31:49;;;;;;;33.87;17.30;;;5.90;99.90;;;;;;5051308;28;20427;-69
2021/03/04 02:34:17;;;;;;;32.07;18.67;;;5.90;99.90;;;;;;5051714;28;20947;-70
2021/03/04 02:36:45;;;;;;;33.00;16.47;;;5.80;99.90;;;;;;5051545;28;20996;-69
2021/03/04 02:39:14;;;;;;;32.40;17.70;;;5.90;99.90;;;;;;5051446;28;20475;-69
2021/03/04 02:41:42;;;;;;;31.33;16.80;;;5.90;99.90;;;;;;5051119;28;20442;-70
2021/03/04 02:44:11;;;;;;;33.80;16.97;;;5.90;99.90;;;;;;5051100;28;20443;-69
2021/03/04 02:46:39;;;;;;;32.83;18.30;;;5.90;99.90;;;;;;5051040;28;20423;-70
2021/03/04 02:49:07;;;;;;;30.40;15.77;;;5.90;99.90;;;;;;5051229;28;20454;-70
2021/03/04 02:51:36;;;;;;;32.40;18.33;;;5.90;99.90;;;;;;5051127;28;20431;-70
2021/03/04 02:54:04;;;;;;;31.87;18.07;;;5.90;99.90;;;;;;5051125;28;20425;-69
2021/03/04 02:56:32;;;;;;;36.83;19.00;;;5.90;99.90;;;;;;5051016;28;20423;-69
2021/03/04 02:59:02;;;;;;;43.50;18.97;;;5.90;99.90;;;;;;5050054;28;20463;-69
2021/03/04 03:01:31;;;;;;;36.47;19.00;;;5.90;99.90;;;;;;5051360;28;20444;-69
2021/03/04 03:03:59;;;;;;;30.77;17.93;;;5.90;99.90;;;;;;5050669;28;20431;-69
2021/03/04 03:06:27;;;;;;;32.00;17.50;;;5.80;99.90;;;;;;5050999;28;20810;-71
2021/03/04 03:08:54;;;;;;;31.57;17.97;;;5.80;99.90;;;;;;5050856;28;20464;-68
2021/03/04 03:11:22;;;;;;;34.20;18.53;;;5.90;99.90;;;;;;5050882;28;20480;-69
2021/03/04 03:13:51;;;;;;;34.23;17.83;;;5.90;99.90;;;;;;5050971;28;20438;-69
2021/03/04 03:16:18;;;;;;;36.93;17.87;;;5.90;99.90;;;;;;5051240;28;20436;-69
2021/03/04 03:18:45;;;;;;;33.50;16.70;;;5.90;99.90;;;;;;5050836;28;20448;-69
2021/03/04 03:21:13;;;;;;;35.10;17.70;;;5.90;99.90;;;;;;5051103;28;20439;-69
2021/03/04 03:23:40;;;;;;;38.00;19.30;;;5.90;99.90;;;;;;5050837;28;20427;-69
2021/03/04 03:26:06;;;;;;;36.97;18.47;;;5.90;99.90;;;;;;5050982;28;20470;-70
2021/03/04 03:28:33;;;;;;;31.40;17.47;;;5.90;99.90;;;;;;5050797;28;20502;-69
2021/03/04 03:31:01;;;;;;;33.90;18.33;;;6.00;99.90;;;;;;5050677;28;20474;-70
2021/03/04 03:33:29;;;;;;;40.90;18.50;;;5.90;99.90;;;;;;5050828;28;20482;-69
2021/03/04 03:35:57;;;;;;;43.10;18.90;;;5.90;99.90;;;;;;5050715;28;20421;-69
2021/03/04 03:38:24;;;;;;;26.30;15.53;;;5.90;99.90;;;;;;5051426;28;20447;-69
2021/03/04 03:40:55;;;;;;;37.30;16.07;;;5.90;99.90;;;;;;5054476;28;20942;-70
2021/03/04 03:43:24;;;;;;;30.53;16.40;;;6.00;99.90;;;;;;5054238;28;20446;-69
2021/03/04 03:45:52;;;;;;;33.43;16.10;;;6.00;99.90;;;;;;5054706;28;21221;-69
2021/03/04 03:48:22;;;;;;;33.87;17.53;;;6.00;99.90;;;;;;5054462;28;20463;-68
2021/03/04 03:50:51;;;;;;;31.80;15.23;;;6.10;99.90;;;;;;5054350;28;20474;-68
2021/03/04 03:53:19;;;;;;;23.83;16.50;;;6.00;99.90;;;;;;5053797;28;20437;-69
2021/03/04 03:55:47;;;;;;;34.67;16.53;;;6.00;99.90;;;;;;5054705;28;20457;-69
2021/03/04 03:58:16;;;;;;;35.80;17.10;;;6.10;99.90;;;;;;5053762;28;20453;-69
2021/03/04 04:00:44;;;;;;;37.70;17.70;;;6.10;99.90;;;;;;5054351;28;20593;-70
2021/03/04 04:03:12;;;;;;;32.03;16.47;;;6.10;99.90;;;;;;5054099;28;20428;-70
2021/03/04 04:05:39;;;;;;;35.77;17.57;;;6.10;99.90;;;;;;5053443;28;20515;-69
2021/03/04 04:08:06;;;;;;;35.27;18.03;;;6.10;99.90;;;;;;5053911;28;20451;-70
2021/03/04 04:10:35;;;;;;;42.30;17.97;;;6.00;99.90;;;;;;5054198;28;20843;-69
2021/03/04 04:13:02;;;;;;;27.10;16.07;;;6.10;99.90;;;;;;5053714;28;20430;-69
2021/03/04 04:15:31;;;;;;;28.17;15.70;;;6.10;99.90;;;;;;5054045;28;20445;-69
2021/03/04 04:17:59;;;;;;;30.23;16.03;;;6.10;99.90;;;;;;5053902;28;20440;-70
2021/03/04 04:20:26;;;;;;;59.73;19.00;;;6.10;99.90;;;;;;5053822;28;20510;-70
2021/03/04 04:22:54;;;;;;;32.37;16.40;;;6.00;99.90;;;;;;5053709;28;20451;-69
2021/03/04 04:25:22;;;;;;;36.83;18.57;;;6.00;99.90;;;;;;5054182;28;20436;-69
2021/03/04 04:27:50;;;;;;;30.80;16.90;;;6.00;99.90;;;;;;5053579;28;20474;-69
2021/03/04 04:30:18;;;;;;;30.90;17.27;;;5.90;99.90;;;;;;5053489;28;20478;-70
2021/03/04 04:32:46;;;;;;;37.50;18.53;;;6.00;99.90;;;;;;5053533;28;20669;-69
2021/03/04 04:35:14;;;;;;;35.63;16.73;;;5.90;99.90;;;;;;5053759;28;20423;-70
2021/03/04 04:37:41;;;;;;;28.30;18.00;;;5.90;99.90;;;;;;5053464;28;20449;-69
2021/03/04 04:40:09;;;;;;;33.40;18.10;;;5.90;99.90;;;;;;5053356;28;20440;-69
2021/03/04 04:42:36;;;;;;;33.73;17.13;;;5.90;99.90;;;;;;5052745;28;20442;-70
2021/03/04 04:45:06;;;;;;;35.50;18.30;;;5.90;99.90;;;;;;5033052;28;20433;-69
2021/03/04 04:47:32;;;;;;;32.30;19.43;;;5.90;99.90;;;;;;5032975;28;20788;-69
2021/03/04 04:49:59;;;;;;;33.37;16.97;;;5.90;99.90;;;;;;5032265;28;20472;-69
2021/03/04 04:52:25;;;;;;;37.67;16.40;;;5.90;99.90;;;;;;5032628;28;20453;-68
2021/03/04 04:54:55;;;;;;;32.23;17.30;;;5.90;99.90;;;;;;5033207;28;20448;-70
2021/03/04 04:57:22;;;;;;;29.00;18.30;;;5.90;99.90;;;;;;5032637;28;20431;-69
2021/03/04 04:59:49;;;;;;;30.40;17.67;;;5.90;99.90;;;;;;5033031;28;20913;-69
2021/03/04 05:02:17;;;;;;;31.77;17.80;;;5.90;99.90;;;;;;5033213;28;20448;-70
2021/03/04 05:04:43;;;;;;;30.87;17.13;;;5.90;99.90;;;;;;5040736;28;20804;-69
2021/03/04 05:07:10;;;;;;;30.77;17.43;;;5.90;99.90;;;;;;5053180;28;20519;-70
2021/03/04 05:09:37;;;;;;;34.23;17.27;;;5.90;99.90;;;;;;5053384;28;20504;-70
2021/03/04 05:12:04;;;;;;;29.23;15.30;;;5.90;99.90;;;;;;5053370;28;20443;-70
2021/03/04 05:14:31;;;;;;;34.63;16.23;;;5.90;99.90;;;;;;5053106;28;20453;-70
2021/03/04 05:16:58;;;;;;;26.37;15.00;;;5.90;99.90;;;;;;5053185;28;20432;-70
2021/03/04 05:19:25;;;;;;;23.27;15.47;;;5.90;99.90;;;;;;5053273;28;20554;-70
2021/03/04 05:21:52;;;;;;;33.60;15.57;;;5.90;99.90;;;;;;5053400;28;20480;-70
2021/03/04 05:24:19;;;;;;;31.87;15.73;;;5.90;99.90;;;;;;5053076;28;20815;-70
2021/03/04 05:26:45;;;;;;;28.83;15.67;;;6.00;99.90;;;;;;5052711;28;20462;-70
2021/03/04 05:29:12;;;;;;;34.10;14.80;;;5.90;99.90;;;;;;5053108;28;21118;-70
2021/03/04 05:31:38;;;;;;;32.40;16.07;;;5.90;99.90;;;;;;5052825;28;20562;-70
2021/03/04 05:34:05;;;;;;;26.80;14.97;;;5.90;99.90;;;;;;5053029;28;20430;-71
2021/03/04 05:36:33;;;;;;;27.77;15.47;;;5.90;99.90;;;;;;5053067;28;20951;-69
2021/03/04 05:39:01;;;;;;;26.73;15.37;;;5.90;99.90;;;;;;5052143;28;20450;-70
2021/03/04 05:41:29;;;;;;;31.90;15.23;;;5.80;99.90;;;;;;5052726;28;20435;-70
2021/03/04 05:43:56;;;;;;;27.47;13.90;;;5.90;99.90;;;;;;5052848;28;20440;-70
2021/03/04 05:46:23;;;;;;;24.47;14.33;;;5.80;99.90;;;;;;5052691;28;20434;-69
2021/03/04 05:48:51;;;;;;;30.67;15.90;;;5.80;99.90;;;;;;5052529;28;20443;-70
2021/03/04 05:51:23;;;;;;;24.33;14.03;;;5.80;99.90;;;;;;5052298;28;20470;-69
2021/03/04 05:53:54;;;;;;;23.97;13.27;;;5.80;99.90;;;;;;5052182;28;20950;-70
2021/03/04 05:56:22;;;;;;;20.23;12.60;;;5.80;99.90;;;;;;5052393;28;20427;-69
2021/03/04 05:58:50;;;;;;;26.70;15.90;;;5.70;99.90;;;;;;5051856;28;20463;-70
2021/03/04 06:07:31;;;;;;;24.47;15.67;;;5.70;99.90;;;;;;5048362;28;20445;-70
2021/03/04 06:09:58;;;;;;;25.33;14.20;;;5.70;99.90;;;;;;5052299;28;20468;-70
2021/03/04 06:12:29;;;;;;;26.83;13.40;;;5.80;99.90;;;;;;5052171;28;20907;-69
2021/03/04 06:14:56;;;;;;;23.00;14.07;;;5.80;99.90;;;;;;5051966;28;20431;-71
2021/03/04 06:17:23;;;;;;;23.30;12.30;;;5.70;99.90;;;;;;5051781;28;20832;-72
2021/03/04 06:19:54;;;;;;;21.53;12.07;;;5.70;99.90;;;;;;5051711;28;20446;-70
2021/03/04 06:22:25;;;;;;;21.10;12.13;;;5.70;99.90;;;;;;5051723;28;20454;-70
2021/03/04 06:24:52;;;;;;;25.77;13.17;;;5.80;99.90;;;;;;5051700;28;20426;-70
2021/03/04 06:27:26;;;;;;;23.83;12.47;;;5.80;99.90;;;;;;5051806;28;20419;-71
2021/03/04 06:29:53;;;;;;;22.67;12.10;;;5.80;99.90;;;;;;5051608;28;20979;-71
2021/03/04 06:32:22;;;;;;;25.30;13.37;;;5.80;99.90;;;;;;5051016;28;20438;-67
2021/03/04 06:35:00;;;;;;;30.93;13.27;;;6.00;99.90;;;;;;5051168;28;20438;-68
2021/03/04 06:37:29;;;;;;;28.17;14.77;;;6.10;99.90;;;;;;5050891;28;20954;-69
2021/03/04 06:39:56;;;;;;;26.70;14.20;;;6.10;99.90;;;;;;5050786;28;20447;-69
2021/03/04 06:42:24;;;;;;;30.17;14.57;;;6.10;99.90;;;;;;5050678;28;20443;-68
2021/03/04 06:44:55;;;;;;;24.80;14.10;;;6.10;99.90;;;;;;5050844;28;20443;-67
2021/03/04 06:47:23;;;;;;;33.93;14.27;;;6.00;99.90;;;;;;5050811;28;20431;-68
2021/03/04 06:49:51;;;;;;;19.90;11.90;;;6.10;99.90;;;;;;5050766;28;20474;-67
2021/03/04 06:52:25;;;;;;;23.60;13.67;;;6.10;99.90;;;;;;5049956;28;20439;-67
2021/03/04 06:54:53;;;;;;;33.03;13.90;;;6.00;99.90;;;;;;5047910;28;20435;-68
2021/03/04 06:57:21;;;;;;;23.13;14.20;;;6.00;99.90;;;;;;5050469;28;20460;-68
2021/03/04 06:59:49;;;;;;;30.73;14.33;;;6.00;99.90;;;;;;5050642;28;20446;-69
2021/03/04 07:02:28;;;;;;;27.93;14.20;;;6.00;99.90;;;;;;5050498;28;20427;-68
2021/03/04 07:04:57;;;;;;;26.43;13.40;;;6.00;99.90;;;;;;5050670;28;20872;-68
2021/03/04 07:07:25;;;;;;;23.93;14.10;;;6.00;99.90;;;;;;5050509;28;20459;-68
2021/03/04 07:09:53;;;;;;;31.93;14.10;;;6.10;99.90;;;;;;5050315;28;20467;-68
2021/03/04 07:12:20;;;;;;;30.43;13.67;;;6.10;99.90;;;;;;5050314;28;20442;-69
2021/03/04 07:14:48;;;;;;;27.77;12.57;;;6.10;99.90;;;;;;5053569;28;20504;-67
2021/03/04 07:17:16;;;;;;;26.30;13.97;;;6.00;99.90;;;;;;5054632;28;20792;-67
2021/03/04 07:19:49;;;;;;;29.10;15.33;;;6.10;99.90;;;;;;5054511;28;20474;-67
2021/03/04 07:22:16;;;;;;;47.10;15.47;;;6.10;99.90;;;;;;5054259;28;20437;-68
2021/03/04 07:24:45;;;;;;;25.33;13.97;;;6.10;99.90;;;;;;5054593;28;20443;-67
2021/03/04 07:27:16;;;;;;;27.30;15.40;;;6.20;99.90;;;;;;5054661;28;20797;-67
2021/03/04 07:29:43;;;;;;;31.03;14.93;;;6.20;99.90;;;;;;5054359;28;20419;-67
2021/03/04 07:32:11;;;;;;;31.80;15.07;;;6.20;99.90;;;;;;5053845;28;20800;-68
2021/03/04 07:34:39;;;;;;;24.73;13.23;;;6.20;99.90;;;;;;5054603;28;20422;-68
2021/03/04 07:37:08;;;;;;;20.07;12.40;;;6.20;99.90;;;;;;5054633;28;20431;-67
2021/03/04 07:39:36;;;;;;;24.60;14.73;;;6.20;99.90;;;;;;5054297;28;20967;-68
2021/03/04 07:42:15;;;;;;;26.37;14.27;;;6.30;99.90;;;;;;5053921;28;20446;-67
2021/03/04 07:44:42;;;;;;;27.67;13.00;;;6.30;99.90;;;;;;5053883;28;20445;-68
2021/03/04 07:47:09;;;;;;;24.33;13.70;;;6.20;99.90;;;;;;5054009;28;20445;-68
2021/03/04 07:49:38;;;;;;;26.83;13.93;;;6.20;99.90;;;;;;5053965;28;20447;-67
2021/03/04 07:52:11;;;;;;;27.33;12.83;;;6.20;99.90;;;;;;5053904;28;20940;-68
2021/03/04 07:54:40;;;;;;;23.63;13.67;;;6.20;99.90;;;;;;5053879;28;21137;-67
2021/03/04 07:57:08;;;;;;;26.90;13.57;;;6.20;99.90;;;;;;5053904;28;20495;-68
2021/03/04 07:59:35;;;;;;;24.83;13.20;;;6.20;99.90;;;;;;5053426;28;20459;-68
2021/03/04 08:02:03;;;;;;;26.87;13.40;;;6.20;99.90;;;;;;5053771;28;20435;-68
2021/03/04 08:04:31;;;;;;;24.10;13.57;;;6.20;99.90;;;;;;5053252;28;20454;-67
2021/03/04 08:06:58;;;;;;;27.47;13.80;;;6.30;99.90;;;;;;5053719;28;20438;-68
2021/03/04 08:09:33;;;;;;;23.40;14.47;;;6.30;99.90;;;;;;5053513;28;20450;-68
2021/03/04 08:12:07;;;;;;;24.77;12.97;;;6.30;99.90;;;;;;5053821;28;20423;-67
2021/03/04 08:14:34;;;;;;;24.20;13.00;;;6.30;99.90;;;;;;5053323;28;20496;-68
2021/03/04 08:17:02;;;;;;;22.10;14.27;;;6.30;99.90;;;;;;5053726;28;20435;-68
2021/03/04 08:19:30;;;;;;;26.40;13.83;;;6.30;99.90;;;;;;5053351;28;20457;-68
2021/03/04 08:22:04;;;;;;;31.00;15.37;;;6.40;99.90;;;;;;5053149;28;20447;-67
2021/03/04 08:24:33;;;;;;;31.93;15.40;;;6.50;99.90;;;;;;5047035;28;20497;-68
2021/03/04 08:27:00;;;;;;;24.00;13.40;;;6.60;99.90;;;;;;5052504;28;20451;-68
2021/03/04 08:29:27;;;;;;;27.60;13.03;;;6.60;99.90;;;;;;5055762;28;20447;-68
2021/03/04 08:31:56;;;;;;;23.87;13.73;;;6.60;99.90;;;;;;5073008;28;20474;-69
2021/03/04 08:34:23;;;;;;;23.60;11.83;;;6.60;99.90;;;;;;5072687;28;20447;-68
2021/03/04 08:36:51;;;;;;;25.53;14.40;;;6.70;99.90;;;;;;5073532;28;20471;-69
2021/03/04 08:39:19;;;;;;;21.83;12.63;;;6.80;99.90;;;;;;5072971;28;20460;-68
2021/03/04 08:41:47;;;;;;;22.23;12.60;;;7.00;99.90;;;;;;5068385;28;21149;-68
2021/03/04 08:44:15;;;;;;;23.23;13.30;;;7.30;99.90;;;;;;5052031;28;20513;-68
2021/03/04 08:46:43;;;;;;;26.17;13.53;;;7.40;99.90;;;;;;5052816;28;20428;-68
2021/03/04 08:49:11;;;;;;;22.33;11.80;;;7.60;99.90;;;;;;5052604;28;20498;-68
2021/03/04 08:51:43;;;;;;;19.50;11.30;;;7.70;99.90;;;;;;5052648;28;20920;-68
2021/03/04 08:54:20;;;;;;;20.63;11.67;;;7.80;99.90;;;;;;5052767;28;20427;-68
2021/03/04 08:56:58;;;;;;;15.37;9.60;;;8.00;99.90;;;;;;5052708;28;20448;-67
2021/03/04 08:59:27;;;;;;;21.00;11.17;;;8.10;99.90;;;;;;5052137;28;20451;-68
2021/03/04 09:01:54;;;;;;;24.23;11.30;;;8.10;99.90;;;;;;5052370;28;20462;-68
2021/03/04 09:04:21;;;;;;;23.70;11.80;;;8.20;99.90;;;;;;5052605;28;20449;-68
2021/03/04 09:06:48;;;;;;;20.30;11.03;;;8.40;99.90;;;;;;5052479;28;20437;-68
2021/03/04 09:09:26;;;;;;;17.43;10.93;;;8.50;99.90;;;;;;5051834;28;20483;-68
2021/03/04 09:11:53;;;;;;;18.03;11.67;;;8.40;99.90;;;;;;5051316;28;20783;-67
2021/03/04 09:14:27;;;;;;;17.60;10.33;;;8.30;99.90;;;;;;5052308;28;20430;-68
2021/03/04 09:16:53;;;;;;;22.70;11.13;;;8.30;99.90;;;;;;5051647;28;21165;-67
2021/03/04 09:19:27;;;;;;;33.00;12.57;;;8.20;99.90;;;;;;5052564;28;20446;-68
2021/03/04 09:21:55;;;;;;;18.97;12.37;;;8.10;99.90;;;;;;5051775;28;20440;-68
2021/03/04 09:24:22;;;;;;;19.70;12.30;;;8.10;99.90;;;;;;5052324;28;20429;-68
2021/03/04 09:26:49;;;;;;;24.40;12.47;;;8.10;99.90;;;;;;5051278;28;20777;-68
2021/03/04 09:29:16;;;;;;;24.00;12.47;;;8.10;99.90;;;;;;5051565;28;20973;-68
2021/03/04 09:31:51;;;;;;;21.70;11.60;;;8.00;99.90;;;;;;5051121;28;20515;-69
2021/03/04 09:34:18;;;;;;;17.37;10.47;;;7.90;99.90;;;;;;5052129;28;20442;-68
2021/03/04 09:36:45;;;;;;;19.13;10.60;;;7.90;99.90;;;;;;5051674;28;20462;-67
2021/03/04 09:39:11;;;;;;;16.30;11.23;;;7.80;99.90;;;;;;5051598;28;20455;-67
2021/03/04 09:41:38;;;;;;;19.40;11.83;;;7.90;99.90;;;;;;5051308;28;20863;-67
2021/03/04 09:44:07;;;;;;;23.13;11.37;;;7.90;99.90;;;;;;5050818;28;20431;-67
2021/03/04 09:46:36;;;;;;;22.10;11.93;;;7.90;99.90;;;;;;5052370;28;20928;-67
2021/03/04 09:49:09;;;;;;;19.50;11.80;;;8.00;99.90;;;;;;5051776;28;20486;-66
2021/03/04 09:51:36;;;;;;;22.73;12.70;;;8.10;99.90;;;;;;5051362;28;20536;-67
2021/03/04 09:54:03;;;;;;;23.17;13.50;;;8.20;99.90;;;;;;5051693;28;21153;-67
2021/03/04 09:56:31;;;;;;;21.03;11.70;;;8.20;99.90;;;;;;5051768;28;20428;-68
2021/03/04 09:58:58;;;;;;;22.23;12.83;;;8.20;99.90;;;;;;5051714;28;20808;-67
2021/03/04 10:01:32;;;;;;;22.53;12.37;;;8.30;99.90;;;;;;5050611;28;20826;-67
2021/03/04 10:04:02;;;;;;;17.83;10.73;;;8.40;99.90;;;;;;5050862;28;20494;-67
2021/03/04 10:06:32;;;;;;;23.07;12.13;;;8.60;99.90;;;;;;5051380;28;20428;-66
2021/03/04 10:08:59;;;;;;;18.10;11.87;;;8.80;99.90;;;;;;5051268;28;20973;-67
2021/03/04 10:11:28;;;;;;;18.43;10.37;;;8.90;99.90;;;;;;5050951;28;20489;-67
2021/03/04 10:13:55;;;;;;;20.33;9.40;;;8.90;99.90;;;;;;5051320;28;20941;-67
2021/03/04 10:16:21;;;;;;;18.57;11.73;;;8.80;99.90;;;;;;5051111;28;20430;-67
2021/03/04 10:18:49;;;;;;;19.20;9.53;;;8.80;99.90;;;;;;5051070;28;20468;-66
2021/03/04 10:21:17;;;;;;;16.70;10.00;;;8.80;99.90;;;;;;5050696;28;20812;-66
2021/03/04 10:23:47;;;;;;;22.70;10.53;;;8.90;99.90;;;;;;5051108;28;20444;-66
2021/03/04 10:26:14;;;;;;;18.27;11.17;;;9.00;99.90;;;;;;5051230;28;20473;-66
2021/03/04 10:28:41;;;;;;;15.80;9.83;;;9.10;99.90;;;;;;5050989;28;20465;-67
2021/03/04 10:31:07;;;;;;;16.00;9.50;;;9.10;99.90;;;;;;5050032;28;20484;-67
2021/03/04 10:33:34;;;;;;;14.90;10.00;;;9.10;99.90;;;;;;5050841;28;20433;-67
2021/03/04 10:36:01;;;;;;;17.17;10.73;;;9.20;99.90;;;;;;5050422;28;20483;-67
2021/03/04 10:38:28;;;;;;;16.20;10.13;;;9.50;99.90;;;;;;5049944;28;20504;-67
2021/03/04 10:40:55;;;;;;;16.17;9.90;;;9.70;99.90;;;;;;5050107;28;20431;-66
2021/03/04 10:43:22;;;;;;;17.97;10.30;;;9.80;99.90;;;;;;5050004;28;20943;-67
2021/03/04 10:45:48;;;;;;;19.50;10.50;;;10.00;99.90;;;;;;5050540;28;20447;-67
2021/03/04 10:48:15;;;;;;;16.93;11.20;;;10.10;99.90;;;;;;5050157;28;20466;-67
2021/03/04 10:50:42;;;;;;;13.27;9.57;;;10.10;99.90;;;;;;5049930;28;20812;-67
2021/03/04 10:53:08;;;;;;;22.17;10.10;;;10.00;99.90;;;;;;5048900;28;20441;-67
2021/03/04 10:55:36;;;;;;;18.60;11.30;;;10.00;99.90;;;;;;5040776;28;20451;-67
2021/03/04 10:58:04;;;;;;;17.53;9.67;;;10.00;99.90;;;;;;5050276;28;20532;-68
2021/03/04 11:00:30;;;;;;;16.77;11.20;;;10.00;99.90;;;;;;5050091;28;20437;-67
2021/03/04 11:02:57;;;;;;;16.47;9.80;;;9.70;99.90;;;;;;5049595;28;20427;-66
2021/03/04 11:05:24;;;;;;;16.20;11.13;;;9.80;99.90;;;;;;5050648;28;20866;-66
2021/03/04 11:07:50;;;;;;;27.23;11.80;;;9.70;99.90;;;;;;5050378;28;20458;-67
2021/03/04 11:10:17;;;;;;;18.47;10.90;;;9.80;99.90;;;;;;5049785;28;20471;-67
2021/03/04 11:12:47;;;;;;;19.17;12.37;;;9.70;99.90;;;;;;5049334;28;20447;-67
2021/03/04 11:15:20;;;;;;;22.57;12.13;;;9.70;99.90;;;;;;5050466;28;20439;-66
2021/03/04 11:17:47;;;;;;;22.83;12.70;;;9.70;99.90;;;;;;5050629;28;21122;-67
2021/03/04 11:20:14;;;;;;;17.37;10.20;;;9.70;99.90;;;;;;5049121;28;20442;-67
2021/03/04 11:22:40;;;;;;;19.40;13.13;;;9.80;99.90;;;;;;5049305;28;20446;-66
2021/03/04 11:25:08;;;;;;;16.37;10.80;;;9.90;99.90;;;;;;5050439;28;20435;-67
2021/03/04 11:27:34;;;;;;;17.90;10.60;;;10.00;99.90;;;;;;5050684;28;20442;-67
2021/03/04 11:30:01;;;;;;;16.60;11.13;;;10.20;99.90;;;;;;5050179;28;20430;-66
2021/03/04 11:32:28;;;;;;;18.13;11.63;;;10.20;99.90;;;;;;5049611;28;20979;-66
2021/03/04 11:34:55;;;;;;;18.50;12.83;;;10.20;99.90;;;;;;5050314;28;20439;-68
2021/03/04 11:37:22;;;;;;;17.80;11.80;;;10.20;99.90;;;;;;5050345;28;21019;-67
2021/03/04 11:39:49;;;;;;;21.17;11.87;;;10.30;99.90;;;;;;5050183;28;20932;-66
2021/03/04 11:42:16;;;;;;;16.13;11.57;;;10.60;99.90;;;;;;5049933;28;20447;-66
2021/03/04 11:44:45;;;;;;;23.23;12.00;;;10.90;99.90;;;;;;5049997;28;20431;-67
2021/03/04 11:47:14;;;;;;;17.30;11.43;;;11.10;99.90;;;;;;5050300;28;20466;-67
2021/03/04 11:49:42;;;;;;;27.33;11.17;;;11.10;99.90;;;;;;5050261;28;20805;-67
2021/03/04 11:52:09;;;;;;;18.57;11.70;;;11.00;99.90;;;;;;5049887;28;20532;-66
2021/03/04 11:54:35;;;;;;;19.97;11.10;;;10.70;99.90;;;;;;5050032;28;20784;-67
2021/03/04 11:57:02;;;;;;;20.47;14.00;;;10.40;99.90;;;;;;5049835;28;20427;-67
2021/03/04 11:59:29;;;;;;;18.23;11.20;;;10.50;99.90;;;;;;5050201;28;20462;-66
2021/03/04 12:01:55;;;;;;;20.47;10.90;;;10.60;99.90;;;;;;5053691;28;20501;-67
2021/03/04 12:04:22;;;;;;;16.10;9.63;;;10.80;99.90;;;;;;5053818;28;20442;-67
2021/03/04 12:06:53;;;;;;;16.20;9.63;;;11.10;99.70;;;;;;5053811;28;20446;-66
2021/03/04 12:09:20;;;;;;;17.40;10.63;;;11.10;99.90;;;;;;5053071;28;20462;-67
2021/03/04 12:11:47;;;;;;;18.40;10.27;;;11.20;99.90;;;;;;5053423;28;20482;-67
2021/03/04 12:14:14;;;;;;;19.10;10.57;;;11.40;99.90;;;;;;5053713;28;20423;-67
2021/03/04 12:16:40;;;;;;;24.03;11.07;;;11.40;99.90;;;;;;5053077;28;20489;-67
2021/03/04 12:19:07;;;;;;;16.10;10.97;;;11.40;99.90;;;;;;5052758;28;20451;-67
2021/03/04 12:21:34;;;;;;;16.40;9.77;;;11.30;99.60;;;;;;5052192;28;20496;-67
2021/03/04 12:24:01;;;;;;;15.20;10.83;;;11.10;99.00;;;;;;5053596;28;20431;-67
2021/03/04 12:26:29;;;;;;;13.60;9.73;;;11.20;99.90;;;;;;5053372;28;20430;-67
2021/03/04 12:28:55;;;;;;;20.27;9.53;;;11.50;99.30;;;;;;5052543;28;20454;-67
2021/03/04 12:31:22;;;;;;;19.80;9.93;;;11.80;99.00;;;;;;5052747;28;20520;-66
2021/03/04 12:33:49;;;;;;;20.20;10.03;;;11.70;98.10;;;;;;5053407;28;20439;-67
2021/03/04 12:36:19;;;;;;;23.83;10.50;;;11.70;97.90;;;;;;5053053;28;20442;-66
2021/03/04 12:38:45;;;;;;;17.30;10.77;;;11.80;97.70;;;;;;5053140;28;20451;-67
2021/03/04 12:41:13;;;;;;;22.00;10.73;;;12.00;98.20;;;;;;5052732;28;20449;-67
2021/03/04 12:43:39;;;;;;;24.80;10.10;;;11.90;99.20;;;;;;5053137;28;20476;-66
2021/03/04 12:46:06;;;;;;;19.00;9.83;;;12.30;98.70;;;;;;5052179;28;20508;-66